Time;durP1;ratioP1;P1;durP2;ratioP2;P2;SDS_P1;SDS_P2;PMS_P1;PMS_P2;Temp;Humidity;BMP_temperature;BMP_pressure;BME280_temperature;BME280_humidity;BME280_pressure;Samples;Min_cycle;Max_cycle;Signal;HPM_P1;HPM_P2
2022/01/02 00:01:14;;;;;;;8.70;5.30;;;;;;;;;;5074652;28;20735;-82
2022/01/02 00:03:42;;;;;;;7.90;4.33;;;;;;;;;;5075207;28;20441;-81
2022/01/02 00:06:10;;;;;;;6.93;5.23;;;;;;;;;;5074656;28;20449;-81
2022/01/02 00:08:42;;;;;;;7.97;4.67;;;;;;;;;;5074649;28;20449;-81
2022/01/02 00:11:11;;;;;;;7.40;5.20;;;;;;;;;;5074409;28;20452;-81
2022/01/02 00:13:43;;;;;;;9.60;4.90;;;;;;;;;;5074897;28;20449;-82
2022/01/02 00:16:11;;;;;;;9.40;5.87;;;;;;;;;;5062305;28;20585;-82
2022/01/02 00:18:46;;;;;;;8.63;5.10;;;;;;;;;;5074915;28;20480;-81
2022/01/02 00:21:14;;;;;;;6.93;4.93;;;;;;;;;;5074270;28;20461;-81
2022/01/02 00:23:51;;;;;;;8.37;4.77;;;;;;;;;;5074973;28;20449;-80
2022/01/02 00:26:19;;;;;;;8.33;4.97;;;;;;;;;;5074290;28;20945;-81
2022/01/02 00:28:49;;;;;;;6.33;4.50;;;;;;;;;;5073594;28;20457;-81
2022/01/02 00:31:17;;;;;;;8.40;5.50;;;;;;;;;;5073989;28;20535;-81
2022/01/02 00:33:44;;;;;;;8.57;5.37;;;;;;;;;;5073910;28;20996;-81
2022/01/02 00:36:11;;;;;;;6.40;4.40;;;;;;;;;;5073354;28;20481;-81
2022/01/02 00:38:39;;;;;;;7.67;4.50;;;;;;;;;;5073771;28;20445;-81
2022/01/02 00:41:06;;;;;;;5.47;4.10;;;;;;;;;;5072233;28;20446;-81
2022/01/02 00:43:38;;;;;;;4.53;3.73;;;;;;;;;;5073799;28;20540;-80
2022/01/02 00:46:08;;;;;;;12.37;4.60;;;;;;;;;;5074585;28;20456;-82
2022/01/02 00:48:37;;;;;;;7.93;4.20;;;;;;;;;;5073646;28;20461;-81
2022/01/02 00:51:05;;;;;;;6.23;4.03;;;;;;;;;;5072955;28;20463;-81
2022/01/02 00:53:34;;;;;;;4.37;3.83;;;;;;;;;;5074561;28;20438;-81
2022/01/02 00:56:01;;;;;;;10.37;4.20;;;;;;;;;;5073290;28;20492;-74
2022/01/02 00:58:34;;;;;;;5.50;4.20;;;;;;;;;;5073345;28;20445;-82
2022/01/02 01:01:05;;;;;;;5.67;4.10;;;;;;;;;;5073473;28;20456;-78
2022/01/02 01:03:34;;;;;;;5.77;4.20;;;;;;;;;;5073624;28;20449;-81
2022/01/02 01:06:04;;;;;;;6.60;4.70;;;;;;;;;;5073347;28;20807;-72
2022/01/02 01:08:32;;;;;;;6.70;4.20;;;;;;;;;;5073557;28;20449;-77
2022/01/02 01:11:00;;;;;;;5.73;3.73;;;;;;;;;;5073587;28;20459;-82
2022/01/02 01:13:27;;;;;;;5.37;4.20;;;;;;;;;;5073778;28;20448;-82
2022/01/02 01:15:54;;;;;;;5.30;3.57;;;;;;;;;;5073402;28;20491;-82
2022/01/02 01:18:23;;;;;;;12.90;3.80;;;;;;;;;;5072452;28;20454;-82
2022/01/02 01:20:53;;;;;;;7.83;3.90;;;;;;;;;;5072960;28;20493;-82
2022/01/02 01:23:20;;;;;;;5.00;3.50;;;;;;;;;;5073138;28;21264;-82
2022/01/02 01:25:49;;;;;;;6.40;3.60;;;;;;;;;;5072978;28;20532;-81
2022/01/02 01:28:17;;;;;;;5.83;4.00;;;;;;;;;;5072442;28;20499;-81
2022/01/02 01:30:45;;;;;;;5.70;4.00;;;;;;;;;;5073522;28;20445;-78
2022/01/02 01:33:12;;;;;;;4.67;3.67;;;;;;;;;;5072795;28;20437;-82
2022/01/02 01:35:40;;;;;;;8.73;4.60;;;;;;;;;;5073077;28;20488;-82
2022/01/02 01:38:10;;;;;;;4.87;3.77;;;;;;;;;;5072294;28;20457;-82
2022/01/02 01:40:39;;;;;;;7.77;4.63;;;;;;;;;;5073371;28;20458;-82
2022/01/02 01:43:09;;;;;;;4.97;3.83;;;;;;;;;;5072303;28;20445;-82
2022/01/02 01:45:36;;;;;;;8.73;3.87;;;;;;;;;;5073128;28;20460;-81
2022/01/02 01:48:05;;;;;;;4.60;3.37;;;;;;;;;;5072032;28;20524;-81
2022/01/02 01:50:34;;;;;;;6.13;4.03;;;;;;;;;;5072813;28;20863;-80
2022/01/02 01:53:01;;;;;;;5.60;3.90;;;;;;;;;;5071901;28;20516;-75
2022/01/02 01:55:30;;;;;;;4.60;4.00;;;6.30;99.90;;;;;;5072988;28;20449;-82
2022/01/02 01:57:57;;;;;;;7.17;4.27;;;5.90;99.90;;;;;;5072513;28;20450;-82
2022/01/02 02:00:24;;;;;;;7.47;4.17;;;5.90;99.90;;;;;;5072329;28;20454;-82
2022/01/02 02:02:51;;;;;;;4.70;3.50;;;;;;;;;;5072425;28;20477;-82
2022/01/02 02:05:19;;;;;;;4.10;3.07;;;;;;;;;;5072036;28;20448;-82
2022/01/02 02:07:46;;;;;;;5.67;3.70;;;;;;;;;;5072182;28;20445;-81
2022/01/02 02:10:16;;;;;;;5.20;3.87;;;;;;;;;;5071995;28;20445;-82
2022/01/02 02:12:45;;;;;;;4.93;3.47;;;;;;;;;;5072727;28;20446;-82
2022/01/02 02:15:14;;;;;;;4.57;3.33;;;;;;;;;;5071561;28;20452;-82
2022/01/02 02:17:41;;;;;;;5.77;3.73;;;;;;;;;;5071819;28;20493;-82
2022/01/02 02:20:17;;;;;;;4.93;4.20;;;;;;;;;;5071587;28;20933;-82
2022/01/02 02:22:46;;;;;;;5.10;3.40;;;;;;;;;;5072242;28;20457;-82
2022/01/02 02:25:14;;;;;;;5.23;3.90;;;;;;;;;;5071825;28;20445;-82
2022/01/02 02:27:41;;;;;;;4.80;3.40;;;;;;;;;;5071747;28;20453;-82
2022/01/02 02:30:09;;;;;;;6.63;3.70;;;;;;;;;;5071467;28;20441;-81
2022/01/02 02:32:36;;;;;;;4.77;3.33;;;;;;;;;;5071952;28;20452;-81
2022/01/02 02:35:04;;;;;;;4.63;3.63;;;;;;;;;;5071097;28;20540;-81
2022/01/02 02:37:32;;;;;;;3.40;2.97;;;;;;;;;;5071573;28;20484;-77
2022/01/02 02:40:00;;;;;;;10.90;4.67;;;;;;;;;;5071949;28;20933;-80
2022/01/02 02:42:36;;;;;;;7.50;3.77;;;;;;;;;;5072235;28;20477;-81
2022/01/02 02:50:36;;;;;;;5.23;3.63;;;;;;;;;;5071335;28;20796;-81
2022/01/02 02:53:04;;;;;;;4.90;3.50;;;;;;;;;;5071295;28;20477;-81
2022/01/02 02:55:41;;;;;;;4.47;3.07;;;;;;;;;;5071938;28;20454;-79
2022/01/02 02:58:37;;;;;;;6.40;3.60;;;;;;;;;;5070770;28;20453;-81
2022/01/02 03:00:56;;;;;;;5.43;3.23;;;;;;;;;;5071469;28;20437;-81
2022/01/02 03:03:23;;;;;;;4.10;3.40;;;;;;;;;;5070322;28;20556;-82
2022/01/02 03:05:50;;;;;;;6.23;3.73;;;;;;;;;;5071103;28;20938;-81
2022/01/02 03:08:19;;;;;;;5.27;3.60;;;;;;;;;;5070562;28;20447;-81
2022/01/02 03:10:46;;;;;;;4.00;3.17;;;;;;;;;;5071567;28;20879;-81
2022/01/02 03:13:13;;;;;;;4.10;3.03;;;;;;;;;;5071059;28;21026;-81
2022/01/02 03:15:40;;;;;;;3.73;3.17;;;;;;;;;;5071072;28;20452;-81
2022/01/02 03:18:07;;;;;;;4.30;3.50;;;;;;;;;;5070067;28;20446;-82
2022/01/02 03:20:34;;;;;;;4.47;2.73;;;;;;;;;;5071504;28;20453;-81
2022/01/02 03:23:02;;;;;;;4.53;3.50;;;;;;;;;;5070652;28;20442;-79
2022/01/02 03:25:30;;;;;;;4.23;2.93;;;;;;;;;;5071416;28;20467;-81
2022/01/02 03:27:57;;;;;;;4.37;3.57;;;;;;;;;;5071164;28;20536;-81
2022/01/02 03:30:24;;;;;;;9.23;4.60;;;;;;;;;;5070450;28;20453;-82
2022/01/02 03:32:51;;;;;;;5.43;2.80;;;;;;;;;;5071243;28;20453;-82
2022/01/02 03:35:19;;;;;;;4.83;3.33;;;;;;;;;;5070791;28;20472;-82
2022/01/02 03:37:46;;;;;;;5.57;3.73;;;;;;;;;;5070475;28;20984;-82
2022/01/02 03:40:13;;;;;;;6.13;3.63;;;;;;;;;;5070510;28;20460;-82
2022/01/02 03:42:41;;;;;;;5.27;3.87;;;;;;;;;;5071168;28;20953;-82
2022/01/02 03:45:09;;;;;;;8.07;4.00;;;;;;;;;;5070686;28;20453;-81
2022/01/02 03:47:36;;;;;;;4.87;3.90;;;;;;;;;;5070846;28;20458;-81
2022/01/02 03:50:04;;;;;;;4.50;3.73;;;;;;;;;;5070332;28;20453;-81
2022/01/02 03:52:32;;;;;;;4.20;3.77;;;;;;;;;;5071140;28;20480;-80
2022/01/02 03:54:59;;;;;;;4.07;3.27;;;;;;;;;;5071216;28;20449;-81
2022/01/02 03:57:26;;;;;;;5.47;3.33;;;;;;;;;;5070816;28;20884;-82
2022/01/02 03:59:55;;;;;;;5.23;3.57;;;;;;;;;;5071014;28;20863;-81
2022/01/02 04:02:22;;;;;;;5.63;3.73;;;;;;;;;;5070457;28;20448;-79
2022/01/02 04:04:49;;;;;;;6.07;3.80;;;;;;;;;;5070438;28;20945;-82
2022/01/02 04:07:16;;;;;;;5.70;4.00;;;;;;;;;;5069727;28;20451;-81
2022/01/02 04:09:43;;;;;;;5.13;3.30;;;;;;;;;;5070822;28;20453;-81
2022/01/02 04:12:10;;;;;;;5.60;3.10;;;5.90;99.90;;;;;;5070558;28;20446;-81
2022/01/02 04:14:38;;;;;;;4.57;3.60;;;5.80;99.90;;;;;;5071200;28;20453;-82
2022/01/02 04:17:06;;;;;;;3.60;3.10;;;5.80;99.90;;;;;;5073714;28;20884;-81
2022/01/02 04:19:33;;;;;;;5.00;3.60;;;6.00;99.90;;;;;;5074372;28;20441;-81
2022/01/02 04:22:01;;;;;;;6.40;3.80;;;6.10;99.90;;;;;;5074253;28;20467;-70
2022/01/02 04:24:27;;;;;;;5.90;4.07;;;5.90;99.90;;;;;;5074591;28;20445;-81
2022/01/02 04:26:54;;;;;;;4.27;3.20;;;5.80;99.90;;;;;;5074045;28;20453;-81
2022/01/02 04:29:21;;;;;;;5.50;3.27;;;5.70;99.90;;;;;;5073774;28;20536;-81
2022/01/02 04:31:48;;;;;;;3.63;3.17;;;5.60;99.90;;;;;;5074134;28;20977;-81
2022/01/02 04:34:16;;;;;;;4.10;3.43;;;5.40;99.90;;;;;;5073588;28;20445;-80
2022/01/02 04:36:43;;;;;;;5.90;3.40;;;5.50;99.90;;;;;;5073416;28;20568;-81
2022/01/02 04:39:10;;;;;;;4.60;3.27;;;5.70;99.90;;;;;;5073748;28;20453;-82
2022/01/02 04:41:37;;;;;;;3.50;2.97;;;5.70;99.90;;;;;;5074265;28;20532;-81
2022/01/02 04:44:04;;;;;;;4.20;3.20;;;5.60;99.90;;;;;;5073747;28;20456;-81
2022/01/02 04:46:30;;;;;;;4.80;3.30;;;5.50;99.90;;;;;;5073715;28;20460;-77
2022/01/02 04:48:57;;;;;;;3.07;2.53;;;5.30;99.90;;;;;;5073960;28;21013;-82
2022/01/02 04:51:25;;;;;;;4.93;3.00;;;5.20;99.90;;;;;;5073412;28;20481;-82
2022/01/02 04:53:52;;;;;;;5.57;3.90;;;5.20;99.90;;;;;;5074222;28;20445;-82
2022/01/02 04:56:19;;;;;;;4.13;2.67;;;5.30;99.90;;;;;;5072983;28;20811;-77
2022/01/02 04:58:46;;;;;;;7.33;3.63;;;5.40;99.90;;;;;;5073943;28;20441;-82
2022/01/02 05:01:14;;;;;;;4.97;3.50;;;5.40;99.90;;;;;;5073247;28;20452;-81
2022/01/02 05:03:41;;;;;;;12.23;4.87;;;5.30;99.90;;;;;;5073639;28;20987;-82
2022/01/02 05:06:08;;;;;;;4.10;3.70;;;5.20;99.90;;;;;;5073395;28;20449;-82
2022/01/02 05:08:37;;;;;;;4.83;3.97;;;;;;;;;;5073654;28;20448;-80
2022/01/02 05:11:04;;;;;;;3.67;2.90;;;;;;;;;;5074010;28;20452;-82
2022/01/02 05:13:31;;;;;;;4.20;3.50;;;;;;;;;;5080135;28;20964;-78
2022/01/02 05:15:59;;;;;;;5.37;3.23;;;;;;;;;;5080992;28;20452;-81
2022/01/02 05:18:26;;;;;;;3.90;2.80;;;;;;;;;;5079093;28;20481;-81
2022/01/02 05:20:53;;;;;;;3.80;3.27;;;;;;;;;;5080642;28;20453;-82
2022/01/02 05:23:21;;;;;;;4.13;3.43;;;;;;;;;;5078994;28;20830;-82
2022/01/02 05:25:50;;;;;;;4.27;3.87;;;;;;;;;;5078165;28;20811;-81
2022/01/02 05:28:17;;;;;;;4.83;3.17;;;;;;;;;;5072301;28;21032;-81
2022/01/02 05:30:45;;;;;;;6.00;3.87;;;;;;;;;;5073660;28;20529;-78
2022/01/02 05:33:12;;;;;;;3.63;3.23;;;;;;;;;;5072751;28;20454;-82
2022/01/02 05:35:39;;;;;;;4.83;2.93;;;;;;;;;;5060037;28;20449;-82
2022/01/02 05:38:06;;;;;;;4.40;3.00;;;;;;;;;;5072040;28;20481;-81
2022/01/02 05:40:34;;;;;;;4.30;3.50;;;;;;;;;;5073351;28;20524;-81
2022/01/02 05:43:04;;;;;;;3.93;3.33;;;;;;;;;;5072541;28;20880;-75
2022/01/02 05:45:31;;;;;;;5.93;3.30;;;;;;;;;;5073298;28;20452;-77
2022/01/02 05:47:59;;;;;;;4.70;4.13;;;;;;;;;;5072439;28;20458;-82
2022/01/02 05:50:26;;;;;;;3.03;2.73;;;;;;;;;;5073382;28;20449;-82
2022/01/02 05:52:53;;;;;;;3.50;2.70;;;;;;;;;;5072739;28;20469;-81
2022/01/02 05:55:20;;;;;;;6.50;3.40;;;;;;;;;;5072293;28;20851;-82
2022/01/02 05:57:47;;;;;;;3.57;3.07;;;;;;;;;;5072676;28;20503;-81
2022/01/02 06:00:16;;;;;;;3.77;2.60;;;;;;;;;;5072253;28;20540;-77
2022/01/02 06:02:43;;;;;;;4.40;3.30;;;;;;;;;;5072397;28;20445;-82
2022/01/02 06:05:10;;;;;;;4.00;3.57;;;;;;;;;;5072011;28;20451;-82
2022/01/02 06:07:37;;;;;;;3.60;2.90;;;;;;;;;;5072102;28;20480;-82
2022/01/02 06:10:06;;;;;;;4.67;3.00;;;;;;;;;;5071677;28;20964;-81
2022/01/02 06:12:33;;;;;;;4.50;2.97;;;;;;;;;;5072491;28;20525;-82
2022/01/02 06:15:00;;;;;;;4.10;3.17;;;;;;;;;;5072217;28;20456;-82
2022/01/02 06:17:29;;;;;;;4.80;3.20;;;;;;;;;;5071905;28;20481;-82
2022/01/02 06:19:56;;;;;;;3.80;2.90;;;;;;;;;;5072075;28;20938;-82
2022/01/02 06:22:23;;;;;;;3.50;3.10;;;;;;;;;;5071733;28;20460;-82
2022/01/02 06:24:50;;;;;;;5.77;3.00;;;;;;;;;;5072270;28;20449;-81
2022/01/02 06:27:19;;;;;;;3.83;3.23;;;;;;;;;;5071261;28;20809;-82
2022/01/02 06:29:46;;;;;;;5.93;3.70;;;;;;;;;;5071947;28;20449;-81
2022/01/02 06:32:14;;;;;;;4.97;4.30;;;;;;;;;;5071605;28;20823;-82
2022/01/02 06:34:44;;;;;;;5.40;4.07;;;;;;;;;;5071796;28;20536;-82
2022/01/02 06:37:11;;;;;;;5.20;4.07;;;;;;;;;;5070957;28;20480;-81
2022/01/02 06:39:38;;;;;;;6.60;3.80;;;;;;;;;;5072071;28;20805;-82
2022/01/02 06:42:06;;;;;;;7.10;4.03;;;;;;;;;;5071291;28;20814;-82
2022/01/02 06:44:33;;;;;;;5.63;3.90;;;;;;;;;;5071769;28;20498;-81
2022/01/02 06:47:00;;;;;;;7.50;3.40;;;;;;;;;;5058011;28;20457;-81
2022/01/02 06:49:27;;;;;;;4.13;3.73;;;;;;;;;;5071759;28;20441;-82
2022/01/02 06:51:56;;;;;;;4.90;3.70;;;;;;;;;;5071466;28;20485;-81
2022/01/02 06:54:23;;;;;;;4.53;3.77;;;;;;;;;;5071074;28;20536;-82
2022/01/02 06:56:50;;;;;;;4.50;3.27;;;;;;;;;;5071380;28;20536;-81
2022/01/02 06:59:17;;;;;;;7.87;4.73;;;;;;;;;;5071180;28;20452;-82
2022/01/02 07:01:44;;;;;;;9.23;3.63;;;;;;;;;;5071771;28;20445;-81
2022/01/02 07:04:12;;;;;;;6.67;3.80;;;;;;;;;;5071349;28;20532;-81
2022/01/02 07:06:39;;;;;;;5.03;4.17;;;;;;;;;;5071902;28;20445;-81
2022/01/02 07:09:08;;;;;;;5.00;3.40;;;;;;;;;;5071247;28;20934;-81
2022/01/02 07:11:35;;;;;;;5.03;3.67;;;;;;;;;;5071999;28;20809;-82
2022/01/02 07:14:02;;;;;;;4.50;3.70;;;;;;;;;;5071686;28;20528;-80
2022/01/02 07:16:29;;;;;;;4.70;4.00;;;;;;;;;;5071326;28;20532;-82
2022/01/02 07:18:56;;;;;;;4.10;3.23;;;;;;;;;;5071186;28;20481;-82
2022/01/02 07:21:24;;;;;;;6.60;3.00;;;;;;;;;;5071217;28;20453;-82
2022/01/02 07:23:52;;;;;;;5.10;3.17;;;;;;;;;;5071160;28;20460;-81
2022/01/02 07:26:21;;;;;;;4.87;3.43;;;;;;;;;;5070476;28;20452;-82
2022/01/02 07:28:48;;;;;;;4.40;3.63;;;;;;;;;;5071524;28;20464;-81
2022/01/02 07:31:15;;;;;;;5.10;3.47;;;;;;;;;;5070928;28;20795;-81
2022/01/02 07:33:42;;;;;;;4.23;3.80;;;;;;;;;;5070903;28;20445;-81
2022/01/02 07:36:09;;;;;;;4.53;3.13;;;;;;;;;;5070214;28;20535;-82
2022/01/02 07:38:37;;;;;;;3.20;2.87;;;;;;;;;;5071192;28;20481;-82
2022/01/02 07:41:04;;;;;;;4.73;3.30;;;;;;;;;;5070913;28;20783;-82
2022/01/02 07:43:32;;;;;;;4.80;3.03;;;;;;;;;;5071353;28;20453;-77
2022/01/02 07:46:00;;;;;;;4.10;3.00;;;;;;;;;;5071226;28;20460;-82
2022/01/02 07:48:27;;;;;;;5.20;2.60;;;;;;;;;;5071077;28;20544;-82
2022/01/02 07:50:54;;;;;;;5.00;3.40;;;;;;;;;;5073460;28;20479;-82
2022/01/02 07:53:21;;;;;;;6.07;3.73;;;;;;;;;;5074166;28;20481;-82
2022/01/02 07:55:48;;;;;;;4.30;3.90;;;;;;;;;;5075234;28;20894;-81
2022/01/02 07:58:16;;;;;;;4.40;4.00;;;;;;;;;;5073825;28;20472;-82
2022/01/02 08:00:44;;;;;;;4.90;3.03;;;;;;;;;;5075352;28;20455;-82
2022/01/02 08:03:12;;;;;;;3.10;2.53;;;;;;;;;;5074513;28;20896;-82
2022/01/02 08:05:39;;;;;;;4.30;2.50;;;;;;;;;;5074603;28;20445;-78
2022/01/02 08:08:06;;;;;;;5.93;3.10;;;;;;;;;;5073846;28;20449;-82
2022/01/02 08:10:33;;;;;;;4.37;3.43;;;;;;;;;;5074737;28;20468;-80
2022/01/02 08:13:00;;;;;;;3.60;2.70;;;;;;;;;;5074562;28;20528;-72
2022/01/02 08:15:27;;;;;;;3.40;2.90;;;;;;;;;;5074800;28;20540;-82
2022/01/02 08:17:56;;;;;;;6.13;4.83;;;;;;;;;;5074107;28;20481;-82
2022/01/02 08:20:23;;;;;;;7.20;5.53;;;;;;;;;;5073569;28;20445;-82
2022/01/02 08:22:50;;;;;;;6.83;4.43;;;;;;;;;;5074614;28;20457;-83
2022/01/02 08:25:17;;;;;;;5.80;4.90;;;;;;;;;;5073896;28;20541;-82
2022/01/02 08:27:45;;;;;;;13.40;5.30;;;;;;;;;;5074124;28;20451;-77
2022/01/02 08:30:12;;;;;;;5.60;4.20;;;;;;;;;;5073544;28;20448;-82
2022/01/02 08:32:39;;;;;;;4.57;3.17;;;;;;;;;;5074436;28;20537;-82
2022/01/02 08:35:08;;;;;;;4.00;2.50;;;;;;;;;;5073410;28;20953;-82
2022/01/02 08:37:35;;;;;;;6.40;3.03;;;;;;;;;;5073422;28;20596;-82
2022/01/02 08:40:02;;;;;;;3.10;2.40;;;5.20;99.90;;;;;;5073198;28;20973;-82
2022/01/02 08:42:29;;;;;;;4.70;2.93;;;8.20;1.00;;;;;;5074471;28;20457;-82
2022/01/02 08:44:56;;;;;;;5.30;3.20;;;8.20;1.00;;;;;;5074048;28;20457;-82
2022/01/02 08:47:22;;;;;;;4.17;3.53;;;8.40;1.00;;;;;;5073178;28;20449;-82
2022/01/02 08:49:49;;;;;;;5.00;4.50;;;8.30;1.00;;;;;;5073985;28;20449;-82
2022/01/02 08:52:18;;;;;;;7.00;4.50;;;8.40;26.20;;;;;;5073251;28;20482;-82
2022/01/02 08:54:45;;;;;;;6.80;5.20;;;8.00;99.90;;;;;;5073899;28;20441;-81
2022/01/02 08:57:12;;;;;;;6.80;5.10;;;8.10;99.90;;;;;;5073046;28;20450;-82
2022/01/02 08:59:39;;;;;;;5.33;4.83;;;8.10;60.00;;;;;;5073869;28;20568;-82
2022/01/02 09:02:06;;;;;;;7.47;5.10;;;8.40;99.90;;;;;;5072096;28;20459;-82
2022/01/02 09:04:32;;;;;;;6.63;4.90;;;8.50;62.40;;;;;;5073731;28;20445;-82
2022/01/02 09:07:01;;;;;;;6.97;5.70;;;8.30;1.00;;;;;;5073063;28;20461;-81
2022/01/02 09:09:29;;;;;;;7.40;4.70;;;8.30;99.90;;;;;;5073787;28;20472;-82
2022/01/02 09:11:56;;;;;;;7.67;4.90;;;8.40;1.00;;;;;;5073853;28;20529;-82
2022/01/02 09:14:23;;;;;;;9.10;6.43;;;8.50;99.90;;;;;;5072964;28;20445;-82
2022/01/02 09:16:50;;;;;;;7.97;5.40;;;8.40;99.90;;;;;;5073319;28;20453;-82
2022/01/02 09:19:17;;;;;;;8.57;5.70;;;8.50;99.90;;;;;;5072885;28;20483;-82
2022/01/02 09:21:44;;;;;;;8.73;6.00;;;8.40;99.90;;;;;;5073725;28;20492;-82
2022/01/02 09:24:11;;;;;;;7.60;5.80;;;8.50;1.00;;;;;;5073026;28;20445;-82
2022/01/02 09:26:39;;;;;;;7.40;5.33;;;8.60;99.90;;;;;;5073005;28;20535;-82
2022/01/02 09:29:06;;;;;;;6.80;5.53;;;8.70;99.90;;;;;;5073029;28;20457;-82
2022/01/02 09:31:33;;;;;;;8.47;6.13;;;8.90;1.00;;;;;;5073361;28;20540;-81
2022/01/02 09:34:00;;;;;;;6.33;5.73;;;9.00;1.00;;;;;;5060245;28;20458;-82
2022/01/02 09:36:27;;;;;;;7.67;5.87;;;9.10;1.00;;;;;;5072977;28;20445;-82
2022/01/02 09:38:56;;;;;;;7.00;5.80;;;9.10;1.00;;;;;;5073053;28;20576;-82
2022/01/02 09:41:23;;;;;;;6.63;5.97;;;9.10;1.00;;;;;;5072407;28;20445;-82
2022/01/02 09:43:52;;;;;;;8.50;6.10;;;9.00;1.00;;;;;;5073126;28;20449;-82
2022/01/02 09:46:21;;;;;;;7.03;5.70;;;9.20;99.90;;;;;;5071905;28;20926;-82
2022/01/02 09:48:49;;;;;;;8.47;5.60;;;9.30;99.90;;;;;;5073097;28;20460;-82
2022/01/02 09:51:18;;;;;;;8.90;5.57;;;9.50;1.00;;;;;;5071870;28;20457;-81
2022/01/02 09:53:45;;;;;;;8.97;5.33;;;;;;;;;;5072720;28;20449;-76
2022/01/02 09:56:13;;;;;;;6.03;5.37;;;;;;;;;;5071959;28;20507;-81
2022/01/02 09:58:42;;;;;;;6.93;5.40;;;;;;;;;;5072550;28;20472;-81
2022/01/02 10:01:15;;;;;;;9.03;6.20;;;9.50;1.00;;;;;;5072072;28;20825;-82
2022/01/02 10:03:43;;;;;;;8.20;5.50;;;9.60;1.00;;;;;;5072866;28;20437;-82
2022/01/02 10:06:10;;;;;;;8.00;5.53;;;9.60;1.00;;;;;;5071613;28;20536;-82
2022/01/02 10:08:37;;;;;;;6.40;5.53;;;9.60;1.00;;;;;;5072838;28;20463;-82
2022/01/02 10:11:07;;;;;;;8.53;5.10;;;9.50;1.00;;;;;;5071870;28;20449;-82
2022/01/02 10:13:40;;;;;;;8.30;6.23;;;9.50;1.00;;;;;;5072352;28;20454;-81
2022/01/02 10:16:20;;;;;;;8.73;6.87;;;9.50;1.00;;;;;;5071456;28;20475;-81
2022/01/02 10:18:48;;;;;;;7.47;5.90;;;9.50;99.90;;;;;;5072556;28;20841;-82
2022/01/02 10:21:30;;;;;;;6.80;6.00;;;9.60;1.00;;;;;;5071824;28;20453;-81
2022/01/02 10:24:25;;;;;;;7.73;5.10;;;9.70;99.90;;;;;;5072531;28;20536;-82
2022/01/02 10:27:13;;;;;;;10.07;5.57;;;9.80;99.90;;;;;;5058153;28;20454;-82
2022/01/02 10:29:46;;;;;;;8.17;6.10;;;9.80;99.90;;;;;;5072209;28;20789;-81
2022/01/02 10:32:43;;;;;;;8.73;6.57;;;9.70;99.90;;;;;;5071175;28;20485;-84
2022/01/02 10:35:16;;;;;;;8.50;6.00;;;9.70;1.00;;;;;;5071580;28;20508;-83
2022/01/02 10:37:48;;;;;;;6.80;5.97;;;9.90;1.00;;;;;;5071668;28;20441;-81
2022/01/02 10:40:31;;;;;;;10.23;6.67;;;9.90;1.00;;;;;;5071637;28;20470;-82
2022/01/02 10:42:59;;;;;;;6.00;5.40;;;9.70;1.00;;;;;;5072222;28;20850;-82
2022/01/02 10:45:34;;;;;;;8.07;5.83;;;9.80;1.00;;;;;;5071785;28;20460;-82
2022/01/02 10:48:02;;;;;;;6.43;5.10;;;9.80;1.00;;;;;;5071277;28;20531;-76
2022/01/02 10:50:29;;;;;;;6.60;5.53;;;9.90;1.00;;;;;;5071852;28;20442;-82
2022/01/02 10:52:56;;;;;;;7.50;5.43;;;9.70;1.00;;;;;;5071985;28;20871;-82
2022/01/02 10:55:25;;;;;;;7.47;4.80;;;9.70;1.00;;;;;;5071683;28;20449;-82
2022/01/02 10:57:53;;;;;;;7.03;5.33;;;9.80;99.90;;;;;;5071458;28;20437;-82
2022/01/02 11:00:25;;;;;;;6.07;4.53;;;9.90;99.90;;;;;;5072049;28;20729;-82
2022/01/02 11:02:52;;;;;;;7.53;5.40;;;9.90;1.00;;;;;;5072152;28;20452;-82
2022/01/02 11:05:22;;;;;;;6.90;5.33;;;9.90;99.90;;;;;;5071320;28;20464;-81
2022/01/02 11:07:50;;;;;;;6.20;5.10;;;10.00;99.90;;;;;;5071676;28;20449;-81
2022/01/02 11:10:18;;;;;;;6.37;4.67;;;9.90;99.90;;;;;;5071244;28;20480;-81
2022/01/02 11:12:47;;;;;;;6.80;4.93;;;10.20;1.00;;;;;;5071753;28;20455;-81
2022/01/02 11:15:16;;;;;;;6.60;5.57;;;10.60;1.00;;;;;;5071215;28;20884;-82
2022/01/02 11:17:43;;;;;;;5.33;4.83;;;10.50;99.90;;;;;;5071199;28;20456;-81
2022/01/02 11:20:13;;;;;;;6.43;4.27;;;10.60;99.90;;;;;;5071008;28;20580;-82
2022/01/02 11:22:45;;;;;;;4.80;3.53;;;10.70;1.00;;;;;;5058692;28;20481;-82
2022/01/02 11:25:21;;;;;;;6.50;4.20;;;10.90;99.90;;;;;;5069904;28;20451;-81
2022/01/02 11:27:58;;;;;;;8.87;4.00;;;11.20;1.00;;;;;;5071201;28;20528;-82
2022/01/02 11:30:41;;;;;;;6.00;4.43;;;11.30;1.00;;;;;;5071052;28;20532;-82
2022/01/02 11:33:12;;;;;;;7.00;4.40;;;11.40;96.40;;;;;;5071323;28;20838;-83
2022/01/02 11:35:42;;;;;;;5.30;4.10;;;11.60;1.00;;;;;;5071938;28;20441;-77
2022/01/02 11:38:11;;;;;;;6.60;3.40;;;11.70;1.00;;;;;;5071617;28;20445;-82
2022/01/02 11:40:46;;;;;;;4.83;3.77;;;11.80;99.90;;;;;;5071886;28;20532;-82
2022/01/02 11:43:55;;;;;;;3.20;2.90;;;11.80;99.90;;;;;;5071579;28;20455;-83
2022/01/02 11:46:24;;;;;;;4.60;4.17;;;11.90;38.90;;;;;;5042564;28;20457;-82
2022/01/02 11:49:14;;;;;;;6.67;4.00;;;11.90;99.90;;;;;;5073407;28;20468;-82
2022/01/02 11:52:10;;;;;;;5.93;3.17;;;12.00;1.00;;;;;;5072166;28;20472;-82
2022/01/02 11:54:43;;;;;;;3.80;3.17;;;11.90;99.90;;;;;;5071780;28;20508;-82
2022/01/02 11:57:53;;;;;;;5.20;3.20;;;11.90;99.90;;;;;;5071036;28;20449;-82
2022/01/02 12:00:53;;;;;;;3.20;2.03;;;12.00;99.90;;;;;;5060749;28;20485;-82
2022/01/02 12:03:39;;;;;;;3.40;1.60;;;;;;;;;;5070592;28;20524;-82
2022/01/02 12:06:16;;;;;;;2.40;1.90;;;;;;;;;;5069752;28;20449;-81
2022/01/02 12:08:43;;;;;;;2.70;1.80;;;;;;;;;;5070663;28;20452;-83
2022/01/02 12:11:25;;;;;;;1.90;1.30;;;;;;;;;;5070140;28;20445;-81
2022/01/02 12:14:03;;;;;;;1.50;1.20;;;;;;;;;;5070254;28;20472;-82
2022/01/02 12:16:41;;;;;;;1.93;1.50;;;;;;;;;;5070560;28;20451;-77
2022/01/02 12:19:09;;;;;;;1.63;1.30;;;;;;;;;;5070122;28;20473;-82
2022/01/02 12:21:37;;;;;;;3.60;1.50;;;;;;;;;;5070560;28;20535;-81
2022/01/02 12:24:07;;;;;;;4.00;1.40;;;;;;;;;;5070086;28;20449;-83
2022/01/02 12:26:36;;;;;;;2.00;1.43;;;;;;;;;;5070044;28;20445;-83
2022/01/02 12:29:06;;;;;;;2.37;1.73;;;;;;;;;;5069776;28;20457;-82
2022/01/02 12:31:34;;;;;;;2.70;1.73;;;;;;;;;;5070340;28;20433;-82
2022/01/02 12:34:06;;;;;;;1.97;1.40;;;;;;;;;;5069564;28;20449;-78
2022/01/02 12:36:33;;;;;;;4.47;1.50;;;;;;;;;;5071269;28;20449;-77
2022/01/02 12:39:01;;;;;;;1.87;1.40;;;;;;;;;;5074320;28;20489;-83
2022/01/02 12:41:29;;;;;;;1.87;1.30;;;;;;;;;;5073711;28;20448;-82
2022/01/02 12:43:57;;;;;;;4.23;1.43;;;;;;;;;;5074223;28;20457;-83
2022/01/02 12:46:38;;;;;;;2.30;1.60;;;;;;;;;;5072666;28;20457;-83
2022/01/02 12:49:06;;;;;;;1.73;1.30;;;;;;;;;;5073745;28;20806;-81
2022/01/02 12:51:34;;;;;;;2.20;1.33;;;;;;;;;;5073666;28;20604;-82
2022/01/02 12:54:02;;;;;;;1.33;1.20;;;;;;;;;;5073025;28;20448;-73
2022/01/02 12:56:37;;;;;;;1.23;1.13;;;;;;;;;;5073499;28;20463;-82
2022/01/02 12:59:18;;;;;;;1.63;1.37;;;;;;;;;;5073055;28;20483;-82
2022/01/02 13:01:56;;;;;;;1.70;1.50;;;;;;;;;;5062009;28;20958;-78
2022/01/02 13:04:24;;;;;;;1.97;1.50;;;;;;;;;;5072981;28;20456;-83
2022/01/02 13:06:52;;;;;;;8.53;1.93;;;;;;;;;;5073102;28;20445;-83
2022/01/02 13:09:23;;;;;;;1.40;1.30;;;;;;;;;;5073129;28;20451;-83
2022/01/02 13:11:50;;;;;;;2.43;1.00;;;;;;;;;;5073564;28;20449;-83
2022/01/02 13:14:30;;;;;;;2.20;1.53;;;;;;;;;;5072943;28;20796;-84
2022/01/02 13:16:59;;;;;;;1.67;1.13;;;;;;;;;;5073261;28;20523;-83
2022/01/02 13:19:27;;;;;;;1.73;1.50;;;;;;;;;;5073599;28;20485;-84
2022/01/02 13:21:54;;;;;;;2.67;1.20;;;;;;;;;;5073081;28;20861;-82
2022/01/02 13:24:25;;;;;;;2.00;1.30;;;;;;;;;;5072574;28;20453;-82
2022/01/02 13:26:52;;;;;;;2.30;1.40;;;;;;;;;;5072829;28;20857;-84
2022/01/02 13:29:23;;;;;;;2.67;1.33;;;;;;;;;;5072359;28;20453;-84
2022/01/02 13:31:51;;;;;;;2.00;1.50;;;;;;;;;;5072630;28;20936;-83
2022/01/02 13:34:27;;;;;;;3.10;1.60;;;;;;;;;;5072475;28;20452;-84
2022/01/02 13:36:55;;;;;;;1.47;1.30;;;;;;;;;;5072523;28;20459;-82
2022/01/02 13:39:38;;;;;;;1.20;1.10;;;;;;;;;;5072330;28;20489;-83
2022/01/02 13:42:05;;;;;;;3.00;1.63;;;;;;;;;;5072527;28;20489;-83
2022/01/02 13:44:36;;;;;;;1.50;1.40;;;;;;;;;;5072523;28;20496;-82
2022/01/02 13:47:04;;;;;;;1.30;1.20;;;;;;;;;;5072063;28;20446;-83
2022/01/02 13:49:45;;;;;;;2.23;1.50;;;;;;;;;;5072162;28;20450;-78
2022/01/02 13:52:15;;;;;;;1.63;1.30;;;;;;;;;;5071081;28;20485;-83
2022/01/02 13:54:42;;;;;;;2.00;1.40;;;;;;;;;;5072276;28;20471;-83
2022/01/02 13:57:10;;;;;;;2.70;1.10;;;;;;;;;;5071610;28;20456;-83
2022/01/02 13:59:38;;;;;;;4.17;1.50;;;;;;;;;;5072475;28;20538;-83
2022/01/02 14:02:05;;;;;;;1.50;1.33;;;;;;;;;;5072174;28;20460;-83
2022/01/02 14:04:51;;;;;;;1.63;1.53;;;;;;;;;;5072069;28;20503;-82
2022/01/02 14:07:21;;;;;;;1.70;1.50;;;;;;;;;;5071236;28;20473;-82
2022/01/02 14:09:52;;;;;;;2.60;1.60;;;;;;;;;;5072576;28;20552;-83
2022/01/02 14:12:20;;;;;;;1.77;1.50;;;;;;;;;;5071640;28;20444;-83
2022/01/02 14:14:50;;;;;;;2.40;1.90;;;;;;;;;;5072298;28;20485;-82
2022/01/02 14:17:31;;;;;;;2.60;1.50;;;;;;;;;;5071190;28;20460;-82
2022/01/02 14:19:58;;;;;;;1.93;1.40;;;;;;;;;;5072372;28;20469;-82
2022/01/02 14:22:27;;;;;;;2.40;1.90;;;;;;;;;;5071650;28;20461;-82
2022/01/02 14:24:54;;;;;;;3.37;1.60;;;;;;;;;;5072345;28;20859;-82
2022/01/02 14:27:23;;;;;;;1.90;1.50;;;;;;;;;;5070698;28;20536;-82